Blakely Island, Washington
Current Conditions -  °F | °C
As of 6:53 PM on Friday 19 Dec 2014 (Local Time) from KFHR Reporting Station
Broken Clouds Broken Clouds  
Wind Chill: 42°   Ceiling: 1800
Heat Index: 48°   Visibility: 10mi
Dew Point: 42°   Wind: 17mph
Humidity: 80%   Direction: 150°SSE
Pressure: 29.89"   Gusts: 25mph
Location:  48.56°N, 122.8°W
Report Text: KFHR 200253Z AUTO 15015G22KT 10SM BKN018 09/06 A2989 RMK AO2 SLP121 T00890056 58006
Loading
Personal Weather Stations






























Interactive Weather Map New forecast layout! Learn more

10-Day Weather Forecast

Advertisements
Track Severe Weather on mobile